Аэропорт: Актобе. Актобе

ICAO: UATT

METAR:
2022-06-26 11:00:00
UATT 261100Z 31007MPS CAVOK 26/09 Q1008 NOSIG RMK QFE736/0981
METAR:
2022-06-26 05:01:00
TAF UATT 260501Z 2606/2706 36005MPS CAVOK TX27/2612Z TN10/2701Z TEMPO 2606/2614 36012MPS